createdAt,value
2023-03-29T10:41:13.775Z,32.83
2023-03-29T10:42:24.826Z,32.81
2023-03-29T10:43:40.187Z,32.73
2023-03-29T10:44:51.457Z,32.70
2023-03-29T10:45:57.918Z,32.66
2023-03-29T10:47:23.434Z,32.63
2023-03-29T10:48:34.411Z,32.60
2023-03-29T10:49:47.054Z,32.57
2023-03-29T10:50:57.238Z,32.53
2023-03-29T10:52:14.925Z,32.48
2023-03-29T10:53:36.332Z,32.45
2023-03-29T10:54:43.535Z,32.42
2023-03-29T10:55:58.743Z,32.38
2023-03-29T10:57:10.891Z,32.33
2023-03-29T10:58:27.690Z,32.28
2023-03-29T10:59:37.920Z,32.25
2023-03-29T11:00:51.493Z,32.23
2023-03-29T11:02:20.427Z,32.18
2023-03-29T11:04:03.305Z,32.14
2023-03-29T11:05:24.181Z,32.10
2023-03-29T11:06:40.162Z,32.08
2023-03-29T11:07:57.839Z,32.02
2023-03-29T11:09:24.179Z,31.99
2023-03-29T11:10:46.161Z,31.94
2023-03-29T11:12:15.603Z,31.92
2023-03-29T11:13:30.823Z,31.87
2023-03-29T11:14:43.221Z,31.84
2023-03-29T11:15:59.752Z,31.79
2023-03-29T11:17:18.630Z,31.77
2023-03-29T11:18:40.967Z,31.72
2023-03-29T11:19:59.227Z,31.69
2023-03-29T11:21:11.702Z,31.66
2023-03-29T11:22:24.466Z,31.64
2023-03-29T11:23:41.930Z,31.61
2023-03-29T11:25:06.384Z,31.59
2023-03-29T11:26:18.475Z,31.56
2023-03-29T11:27:32.252Z,31.55
2023-03-29T11:28:45.615Z,31.53
2023-03-29T11:30:19.636Z,31.50
2023-03-29T11:31:38.822Z,31.46
2023-03-29T11:32:55.381Z,31.41
2023-03-29T11:34:24.858Z,31.41
2023-03-29T11:35:45.255Z,31.40
2023-03-29T11:37:03.567Z,31.37
2023-03-29T11:38:28.652Z,31.35
2023-03-29T11:39:45.981Z,31.34
2023-03-29T11:41:02.205Z,31.32
2023-03-29T11:42:15.788Z,31.29
2023-03-29T11:43:28.828Z,31.29
2023-03-29T11:44:37.516Z,31.29
2023-03-29T11:45:46.995Z,31.28
2023-03-29T11:47:00.174Z,31.27
2023-03-29T11:48:09.177Z,31.27
2023-03-29T11:49:23.587Z,31.27
2023-03-29T11:50:34.764Z,31.27
2023-03-29T11:51:46.788Z,31.25
2023-03-29T11:52:56.097Z,31.21
2023-03-29T11:54:09.632Z,31.20
2023-03-29T11:55:25.364Z,31.20
2023-03-29T11:56:37.278Z,31.18
2023-03-29T11:57:47.071Z,31.19
2023-03-29T11:59:03.095Z,31.16
2023-03-29T12:00:21.264Z,31.16
2023-03-29T12:01:33.645Z,31.14
2023-03-29T12:02:43.449Z,31.12
2023-03-29T12:03:55.453Z,31.11
2023-03-29T12:05:05.638Z,31.09
2023-03-29T12:06:19.376Z,31.07
2023-03-29T12:07:31.895Z,31.03
2023-03-29T12:08:40.944Z,30.99
2023-03-29T12:09:51.938Z,30.94
2023-03-29T12:11:07.163Z,30.92
2023-03-29T12:12:24.903Z,30.91
2023-03-29T12:13:36.761Z,30.89
2023-03-29T12:14:56.802Z,30.84
2023-03-29T12:16:12.232Z,30.81
2023-03-29T12:17:23.931Z,30.77
2023-03-29T12:18:33.285Z,30.75
2023-03-29T12:19:43.794Z,30.72
2023-03-29T12:20:57.141Z,30.71
2023-03-29T12:22:04.066Z,30.70
2023-03-29T12:23:18.786Z,30.71
2023-03-29T12:24:27.523Z,30.71
2023-03-29T12:25:39.415Z,30.69
2023-03-29T12:27:22.307Z,30.66
2023-03-29T12:28:49.675Z,30.65
2023-03-29T12:30:28.791Z,30.63
2023-03-29T12:31:41.518Z,30.63
2023-03-29T12:32:58.419Z,30.64
2023-03-29T12:34:31.263Z,30.63
2023-03-29T12:35:46.675Z,30.61
2023-03-29T12:37:10.826Z,30.61
2023-03-29T12:38:28.679Z,30.60
2023-03-29T12:39:39.216Z,30.60
2023-03-29T12:40:47.882Z,30.60
2023-03-29T12:41:56.696Z,30.58
2023-03-29T12:43:09.564Z,30.57
2023-03-29T12:44:19.370Z,30.55
2023-03-29T12:45:49.893Z,30.51
2023-03-29T12:47:00.462Z,30.48
2023-03-29T12:48:08.035Z,30.46
2023-03-29T12:49:21.031Z,30.43
2023-03-29T12:50:54.866Z,30.41
2023-03-29T12:52:04.378Z,30.44
2023-03-29T12:53:20.465Z,30.41
2023-03-29T12:54:35.524Z,30.37
2023-03-29T12:55:56.357Z,30.39
2023-03-29T12:57:09.056Z,30.37
2023-03-29T12:58:35.139Z,30.33
2023-03-29T12:59:48.354Z,30.33
2023-03-29T13:01:08.511Z,30.29
2023-03-29T13:02:47.390Z,30.25
2023-03-29T13:03:54.822Z,30.25
2023-03-29T13:05:03.732Z,30.20
2023-03-29T13:06:15.577Z,30.20
2023-03-29T13:07:53.489Z,30.18
2023-03-29T16:38:07.672Z,29.13
2023-03-29T16:39:16.310Z,29.12
2023-03-29T16:40:22.637Z,29.14
2023-03-29T16:41:29.335Z,29.16
2023-03-29T16:42:36.118Z,29.19
2023-03-29T16:43:42.860Z,29.20
2023-03-29T16:44:49.583Z,29.21
2023-03-29T16:45:56.575Z,29.22
2023-03-29T16:47:03.471Z,29.25
2023-03-29T16:48:08.942Z,29.27
2023-03-29T16:49:19.642Z,29.29
2023-03-29T16:50:26.510Z,29.31
2023-03-29T16:51:33.340Z,29.33
2023-03-29T16:52:40.571Z,29.34
2023-03-29T16:53:45.922Z,29.35
2023-03-29T16:54:54.656Z,29.35
2023-03-29T16:56:01.685Z,29.35
2023-03-29T16:57:09.267Z,29.38
2023-03-29T16:58:16.803Z,29.39
2023-03-29T16:59:23.558Z,29.40
2023-03-29T17:00:30.817Z,29.40
2023-03-29T17:01:37.757Z,29.36
2023-03-29T17:02:44.580Z,29.34
2023-03-29T17:03:51.294Z,29.28
2023-03-29T17:04:56.810Z,29.25
2023-03-29T17:06:04.019Z,29.23
2023-03-29T17:07:10.962Z,29.20
2023-03-29T17:08:16.428Z,29.18
2023-03-29T17:09:23.276Z,29.19
2023-03-29T17:10:31.728Z,29.09
2023-03-29T17:11:38.669Z,29.06
2023-03-29T17:12:45.445Z,29.06
2023-03-29T17:13:50.803Z,29.07
2023-03-29T17:14:57.572Z,29.10
2023-03-29T17:16:03.367Z,29.12
2023-03-29T17:17:10.818Z,29.12
2023-03-29T17:18:17.645Z,29.13
2023-03-29T17:19:24.410Z,29.10
2023-03-29T17:20:29.900Z,29.10
2023-03-29T17:21:36.821Z,29.06
2023-03-29T17:22:43.977Z,29.03
2023-03-29T17:23:49.331Z,29.03
2023-03-29T17:24:56.153Z,29.02
2023-03-29T17:26:05.047Z,29.03
2023-03-29T17:27:12.043Z,29.03
2023-03-29T17:28:17.460Z,29.03
2023-03-29T17:29:24.182Z,29.03
2023-03-29T17:30:29.644Z,28.99
2023-03-29T17:31:37.793Z,28.98
2023-03-29T17:32:43.236Z,28.98
2023-03-29T17:33:52.233Z,28.98
2023-03-29T17:35:00.766Z,28.98
2023-03-29T17:36:07.573Z,29.00
2023-03-29T17:37:14.695Z,29.03
2023-03-29T17:38:21.800Z,29.04
2023-03-29T17:39:29.121Z,29.05
2023-03-29T17:40:34.440Z,29.06
2023-03-29T17:41:43.550Z,29.08
2023-03-29T17:42:49.693Z,29.06
2023-03-29T17:43:56.385Z,29.06
2023-03-29T17:45:01.783Z,29.07
2023-03-29T17:46:08.856Z,29.09
2023-03-29T17:47:15.554Z,29.09
2023-03-29T17:48:22.768Z,29.10
2023-03-29T17:49:31.505Z,29.13
2023-03-29T17:50:38.336Z,29.12
2023-03-29T17:51:45.165Z,29.11
2023-03-29T17:52:50.710Z,29.12
2023-03-29T17:53:58.643Z,29.10
2023-03-29T17:55:04.115Z,29.11
2023-03-29T17:56:11.821Z,29.07
2023-03-29T17:57:20.356Z,29.03
2023-03-29T17:58:27.108Z,29.01
2023-03-29T17:59:33.808Z,28.99
2023-03-29T18:00:39.528Z,28.96
2023-03-29T18:01:46.459Z,28.96
2023-03-29T18:02:53.212Z,28.95
2023-03-29T18:04:00.058Z,28.94
2023-03-29T18:05:06.065Z,28.94
2023-03-29T18:06:13.072Z,28.93
2023-03-29T18:07:18.949Z,28.94
2023-03-29T18:08:25.606Z,28.95
2023-03-29T18:09:31.155Z,28.94
2023-03-29T18:10:38.326Z,28.96
2023-03-29T18:11:43.672Z,28.97
2023-03-29T18:12:52.137Z,28.99
2023-03-29T18:14:01.671Z,28.99
2023-03-29T18:15:08.969Z,29.00
2023-03-29T18:16:14.396Z,29.01
2023-03-29T18:17:21.116Z,29.04
2023-03-29T18:18:28.241Z,29.05
2023-03-29T18:19:34.997Z,29.06
2023-03-29T18:20:43.625Z,29.07
2023-03-29T18:21:50.329Z,29.08
2023-03-29T18:22:55.721Z,29.10
2023-03-29T18:24:02.551Z,29.12
2023-03-29T18:25:08.953Z,29.13
2023-03-29T18:26:16.208Z,29.13
2023-03-29T18:27:22.054Z,29.15
2023-03-29T18:28:30.471Z,29.16
2023-03-29T18:29:35.980Z,29.17
2023-03-29T18:30:42.722Z,29.16
2023-03-29T18:31:49.773Z,29.14
2023-03-29T18:32:56.617Z,29.12
2023-03-29T18:34:03.687Z,29.06
2023-03-29T18:35:11.281Z,28.99
2023-03-29T18:36:18.284Z,28.91
2023-03-29T18:37:25.193Z,28.83
2023-03-29T18:38:31.151Z,28.78
2023-03-29T18:39:38.764Z,28.73
2023-03-29T18:40:45.450Z,28.70
2023-03-29T18:41:52.095Z,28.68
2023-03-29T18:42:57.401Z,28.66
2023-03-29T18:44:05.785Z,28.59
2023-03-29T18:45:13.348Z,28.61
2023-03-29T18:46:18.769Z,28.57
2023-03-29T18:47:25.420Z,28.57
2023-03-29T18:48:31.022Z,28.56
2023-03-29T18:49:38.097Z,28.58
2023-03-29T18:50:46.842Z,28.58
2023-03-29T18:51:53.506Z,28.58
2023-03-29T18:52:58.771Z,28.60
2023-03-29T18:54:05.773Z,28.60
2023-03-29T18:55:11.802Z,28.57
2023-03-29T18:56:18.482Z,28.55
2023-03-29T18:57:25.175Z,28.53
2023-03-29T18:58:30.666Z,28.51
2023-03-29T18:59:39.150Z,28.48
2023-03-29T19:00:45.353Z,28.46
2023-03-29T19:01:52.043Z,28.42
2023-03-29T19:02:58.749Z,28.40
2023-03-29T19:04:05.439Z,28.36
2023-03-29T19:05:12.793Z,28.35
2023-03-29T19:06:19.496Z,28.33
2023-03-29T19:07:26.110Z,28.30
2023-03-29T19:08:34.398Z,28.26
2023-03-29T19:09:39.710Z,28.25
2023-03-29T19:10:46.486Z,28.27
2023-03-29T19:11:53.160Z,28.27
2023-03-29T19:12:59.806Z,28.29
2023-03-29T19:14:06.625Z,28.30
2023-03-29T19:15:16.070Z,28.31
2023-03-29T19:16:21.955Z,28.32
2023-03-29T19:17:29.171Z,28.34
2023-03-29T19:18:35.990Z,28.35
2023-03-29T19:19:47.379Z,28.36
2023-03-29T19:20:55.592Z,28.37
2023-03-29T19:22:02.267Z,28.36
2023-03-29T19:23:07.666Z,28.34
2023-03-29T19:24:14.412Z,28.34
2023-03-29T19:25:21.224Z,28.36
2023-03-29T19:26:26.824Z,28.37
2023-03-29T19:27:33.612Z,28.37
2023-03-29T19:28:40.363Z,28.37
2023-03-29T19:29:45.636Z,28.35
2023-03-29T19:30:54.325Z,28.37
2023-03-29T19:32:01.055Z,28.35
2023-03-29T19:33:07.929Z,28.34
2023-03-29T19:34:14.656Z,28.35
2023-03-29T19:35:20.154Z,28.33
2023-03-29T19:36:26.805Z,28.34
2023-03-29T19:37:33.477Z,28.33
2023-03-29T19:38:40.200Z,28.31
2023-03-29T19:39:46.206Z,28.31
2023-03-29T19:40:54.131Z,28.31
2023-03-29T19:41:59.689Z,28.31
2023-03-29T19:43:06.328Z,28.32
2023-03-29T19:44:13.135Z,28.33
2023-03-29T19:45:18.544Z,28.35
2023-03-29T19:46:26.944Z,28.35
2023-03-29T19:47:33.909Z,28.35
2023-03-29T19:48:39.407Z,28.36
2023-03-29T19:49:47.973Z,28.37
2023-03-29T19:50:53.470Z,28.35
2023-03-29T19:52:00.107Z,28.36
2023-03-29T19:53:05.502Z,28.36
2023-03-29T19:54:14.235Z,28.34
2023-03-29T19:55:21.115Z,28.35
2023-03-29T19:56:29.392Z,28.34
2023-03-29T19:57:36.097Z,28.28
2023-03-29T19:58:41.419Z,28.22
2023-03-29T19:59:48.092Z,28.19
2023-03-29T20:00:59.523Z,28.19
2023-03-29T20:02:06.678Z,28.21
2023-03-29T20:03:15.447Z,28.21
2023-03-29T20:04:22.599Z,28.21
2023-03-29T20:05:28.086Z,28.22
2023-03-29T20:06:34.779Z,28.22
2023-03-29T20:07:40.132Z,28.20
2023-03-29T20:08:46.832Z,28.16
2023-03-29T20:09:52.157Z,28.15
2023-03-29T20:11:02.239Z,28.11
2023-03-29T20:12:08.006Z,28.08
2023-03-29T20:13:19.009Z,28.05
2023-03-29T20:14:31.427Z,28.01
2023-03-29T20:15:36.673Z,28.00
2023-03-29T20:16:44.194Z,27.99
2023-03-29T20:17:52.943Z,28.00
2023-03-29T20:19:03.375Z,28.00
2023-03-29T20:20:12.002Z,28.01
2023-03-29T20:21:18.204Z,28.00
2023-03-29T20:22:27.445Z,27.98
2023-03-29T20:23:34.035Z,27.97
2023-03-29T20:24:40.769Z,27.93
2023-03-29T20:25:47.733Z,27.91
2023-03-29T20:26:53.086Z,27.92
2023-03-29T20:28:01.160Z,27.93
2023-03-29T20:29:06.644Z,27.92
2023-03-29T20:30:14.168Z,27.93
2023-03-29T20:31:19.605Z,27.94
2023-03-29T20:32:26.304Z,27.95
2023-03-29T20:33:33.401Z,27.95
2023-03-29T20:34:40.211Z,27.96
2023-03-29T20:35:48.675Z,27.93
2023-03-29T20:36:56.638Z,27.93
2023-03-29T20:38:03.436Z,27.95
2023-03-29T20:39:09.781Z,27.94
2023-03-29T20:40:17.166Z,27.93
2023-03-29T20:41:22.490Z,27.92
2023-03-29T20:42:31.291Z,27.89
2023-03-29T20:43:38.808Z,27.85
2023-03-29T20:44:51.911Z,27.81
2023-03-29T20:45:57.306Z,27.78
2023-03-29T20:47:08.059Z,27.78
2023-03-29T20:48:13.489Z,27.78
2023-03-29T20:49:27.599Z,27.79
2023-03-29T20:50:34.332Z,27.81
2023-03-29T20:51:39.866Z,27.83
2023-03-29T20:52:46.490Z,27.83
2023-03-29T20:53:53.343Z,27.83
2023-03-29T20:55:00.709Z,27.85
2023-03-29T20:56:08.205Z,27.85
2023-03-29T20:57:16.474Z,27.87
2023-03-29T20:58:21.841Z,27.87
2023-03-29T20:59:29.308Z,27.87
2023-03-29T21:00:39.100Z,27.88
2023-03-29T21:01:44.415Z,27.89
2023-03-29T21:02:51.225Z,27.90
2023-03-29T21:03:58.267Z,27.92
2023-03-29T21:05:05.730Z,27.94
2023-03-29T21:06:15.516Z,27.95
2023-03-29T21:07:23.090Z,27.95
2023-03-29T21:08:30.203Z,27.96
2023-03-29T21:09:38.362Z,27.96
2023-03-29T21:10:45.028Z,27.97
2023-03-29T21:11:50.404Z,27.95
2023-03-29T21:13:01.503Z,27.94
2023-03-29T21:14:06.957Z,27.92
2023-03-29T21:15:14.938Z,27.93
2023-03-29T21:16:22.020Z,27.92
2023-03-29T21:17:28.887Z,27.93
2023-03-29T21:18:34.272Z,27.89
2023-03-29T21:19:42.382Z,27.87
2023-03-29T21:20:51.179Z,27.84
2023-03-29T21:21:57.812Z,27.83
2023-03-29T21:23:03.118Z,27.85
2023-03-29T21:24:10.334Z,27.87
2023-03-29T21:25:17.592Z,27.85
2023-03-29T21:26:24.281Z,27.86
2023-03-29T21:27:30.909Z,27.83
2023-03-29T21:28:39.056Z,27.83
2023-03-29T21:29:45.719Z,27.83
2023-03-29T21:30:51.162Z,27.81
2023-03-29T21:31:57.892Z,27.81
2023-03-29T21:33:03.232Z,27.81
2023-03-29T21:34:09.985Z,27.81
2023-03-29T21:35:15.518Z,27.82
2023-03-29T21:36:23.925Z,27.83
2023-03-29T21:37:29.208Z,27.83
2023-03-29T21:38:36.568Z,27.82
2023-03-29T21:39:43.807Z,27.81
2023-03-29T21:40:49.182Z,27.79
2023-03-29T21:41:55.846Z,27.78
2023-03-29T21:43:01.111Z,27.79
2023-03-29T21:44:07.780Z,27.79
2023-03-29T21:45:14.007Z,27.81
2023-03-29T21:46:20.746Z,27.81
2023-03-29T21:47:26.127Z,27.73
2023-03-29T21:48:32.783Z,27.72
2023-03-29T21:49:38.058Z,27.72
2023-03-29T21:50:44.773Z,27.73
2023-03-29T21:51:51.886Z,27.74
2023-03-29T21:52:58.656Z,27.73
2023-03-29T21:54:03.984Z,27.73
2023-03-29T21:55:11.469Z,27.72
2023-03-29T21:56:18.107Z,27.73
2023-03-29T21:57:23.419Z,27.70
2023-03-29T21:58:30.184Z,27.70
2023-03-29T21:59:36.941Z,27.70
2023-03-29T22:00:42.221Z,27.67
2023-03-29T22:01:48.925Z,27.66
2023-03-29T22:02:54.398Z,27.69
2023-03-29T22:04:01.163Z,27.69
2023-03-29T22:05:08.454Z,27.70
2023-03-29T22:06:16.408Z,27.72
2023-03-29T22:07:25.245Z,27.72
2023-03-29T22:08:30.575Z,27.72
2023-03-29T22:09:37.957Z,27.73
2023-03-29T22:10:43.475Z,27.73
2023-03-29T22:11:50.153Z,27.73
2023-03-29T22:12:55.472Z,27.75
2023-03-29T22:14:02.246Z,27.75
2023-03-29T22:15:08.493Z,27.75
2023-03-29T22:16:21.320Z,27.73
2023-03-29T22:17:28.110Z,27.70
2023-03-29T22:18:44.132Z,27.69
2023-03-29T22:19:49.517Z,27.69
2023-03-29T22:20:56.558Z,27.69
2023-03-29T22:22:03.446Z,27.70
2023-03-29T22:23:10.429Z,27.67
2023-03-29T22:24:17.103Z,27.67
2023-03-29T22:25:24.258Z,27.64
2023-03-29T22:26:32.121Z,27.60
2023-03-29T22:27:37.599Z,27.57
2023-03-29T22:28:44.329Z,27.56
2023-03-29T22:29:51.044Z,27.55
2023-03-29T22:30:56.355Z,27.55
2023-03-29T22:32:03.147Z,27.59
2023-03-29T22:33:08.691Z,27.60
2023-03-29T22:34:15.429Z,27.61
2023-03-29T22:35:20.845Z,27.62
2023-03-29T22:36:29.007Z,27.64
2023-03-29T22:37:34.328Z,27.64
2023-03-29T22:38:42.998Z,27.65
2023-03-29T22:39:48.914Z,27.63
2023-03-29T22:40:55.669Z,27.63
2023-03-29T22:42:02.430Z,27.63
2023-03-29T22:43:07.971Z,27.58
2023-03-29T22:44:14.837Z,27.53
2023-03-29T22:45:20.286Z,27.49
2023-03-29T22:46:27.859Z,27.44
2023-03-29T22:47:33.526Z,27.41
2023-03-29T22:48:40.681Z,27.39
2023-03-29T22:49:46.093Z,27.37
2023-03-29T22:50:52.794Z,27.38
2023-03-29T22:51:58.238Z,27.37
2023-03-29T22:53:04.904Z,27.37
2023-03-29T22:54:12.082Z,27.35
2023-03-29T22:55:19.100Z,27.37
2023-03-29T22:56:26.331Z,27.36
2023-03-29T22:57:31.628Z,27.36
2023-03-29T22:58:38.417Z,27.37
2023-03-29T22:59:43.872Z,27.39
2023-03-29T23:00:50.806Z,27.40
2023-03-29T23:01:56.270Z,27.42
2023-03-29T23:03:03.147Z,27.44
2023-03-29T23:04:08.808Z,27.45
2023-03-29T23:05:15.668Z,27.47
2023-03-29T23:06:21.025Z,27.47
2023-03-29T23:07:27.811Z,27.51
2023-03-29T23:08:34.186Z,27.53
2023-03-29T23:09:42.655Z,27.54
2023-03-29T23:10:49.211Z,27.57
2023-03-29T23:11:55.956Z,27.58
2023-03-29T23:13:10.379Z,27.57
2023-03-29T23:14:17.194Z,27.58
2023-03-29T23:15:24.276Z,27.55
2023-03-29T23:16:31.252Z,27.49
2023-03-29T23:17:36.844Z,27.43
2023-03-29T23:18:43.514Z,27.39
2023-03-29T23:19:49.424Z,27.36
2023-03-29T23:20:58.073Z,27.34
2023-03-29T23:22:03.581Z,27.29
2023-03-29T23:23:10.794Z,27.27
2023-03-29T23:24:19.230Z,27.28
2023-03-29T23:25:28.081Z,27.25
2023-03-29T23:26:33.428Z,27.27
2023-03-29T23:27:40.167Z,27.27
2023-03-29T23:28:46.291Z,27.26
2023-03-29T23:29:53.016Z,27.28
2023-03-29T23:31:01.825Z,27.31
2023-03-29T23:32:07.648Z,27.30
2023-03-29T23:33:16.058Z,27.32
2023-03-29T23:34:21.806Z,27.33
2023-03-29T23:35:28.638Z,27.36
2023-03-29T23:36:35.374Z,27.38
2023-03-29T23:37:41.076Z,27.38
2023-03-29T23:38:49.440Z,27.37
2023-03-29T23:39:55.259Z,27.38
2023-03-29T23:41:05.036Z,27.39
2023-03-29T23:42:10.934Z,27.41
2023-03-29T23:43:18.558Z,27.42
2023-03-29T23:44:24.110Z,27.44
2023-03-29T23:45:31.200Z,27.45
2023-03-29T23:46:36.633Z,27.42
2023-03-29T23:47:43.979Z,27.34
2023-03-29T23:48:51.926Z,27.34
2023-03-29T23:49:57.350Z,27.34
2023-03-29T23:51:04.198Z,27.37
2023-03-29T23:52:09.747Z,27.39
2023-03-29T23:53:17.345Z,27.40
2023-03-29T23:54:24.067Z,27.40
2023-03-29T23:55:29.497Z,27.41
2023-03-29T23:56:38.137Z,27.42
2023-03-29T23:57:43.609Z,27.41
2023-03-29T23:58:50.377Z,27.43
2023-03-29T23:59:57.246Z,27.44
